Terminal Aerodrome Forecast
Issued by NWS Wilmington, OH

Current Version | Previous Version | Graphics & Text | Print | Product List | Glossary On
Versions: 1 2 3 4 5 6 7 8 9 10 11 12 13 14 15 16 17 18 19
000
FTUS41 KILN 261900 AAA
TAFDAY
TAF AMD
KDAY 261906Z 2619/2718 36012KT P6SM -SN SCT015 BKN022
      TEMPO 2620/2622 BKN015
     FM262200 36010KT P6SM SCT015 OVC022
     FM270400 33005KT P6SM SCT022=

USA.gov is the U.S. government's official web portal to all federal, state and local government web resources and services.